sensor_id;sensor_type;location;lat;lon;timestamp;P1;durP1;ratioP1;P2;durP2;ratioP2
73672;SDS011;61972;19.480;-99.240;2022-11-24T00:01:20;16.53;;;10.00;;
73672;SDS011;61972;19.480;-99.240;2022-11-24T00:03:52;16.92;;;10.88;;
73672;SDS011;61972;19.480;-99.240;2022-11-24T00:06:19;17.92;;;12.25;;
73672;SDS011;61972;19.480;-99.240;2022-11-24T00:08:46;16.50;;;11.05;;
73672;SDS011;61972;19.480;-99.240;2022-11-24T00:11:13;16.40;;;11.15;;
73672;SDS011;61972;19.480;-99.240;2022-11-24T00:13:41;18.23;;;11.43;;
73672;SDS011;61972;19.480;-99.240;2022-11-24T00:16:15;17.80;;;11.68;;
73672;SDS011;61972;19.480;-99.240;2022-11-24T00:18:46;19.35;;;11.73;;
73672;SDS011;61972;19.480;-99.240;2022-11-24T00:21:14;19.17;;;11.75;;
73672;SDS011;61972;19.480;-99.240;2022-11-24T00:23:41;20.38;;;12.70;;
73672;SDS011;61972;19.480;-99.240;2022-11-24T00:26:20;19.83;;;12.30;;
73672;SDS011;61972;19.480;-99.240;2022-11-24T00:28:49;19.05;;;11.98;;
73672;SDS011;61972;19.480;-99.240;2022-11-24T00:31:21;21.00;;;12.15;;
73672;SDS011;61972;19.480;-99.240;2022-11-24T00:33:58;18.52;;;11.73;;
73672;SDS011;61972;19.480;-99.240;2022-11-24T00:36:27;19.63;;;12.20;;
73672;SDS011;61972;19.480;-99.240;2022-11-24T00:38:55;19.03;;;12.40;;
73672;SDS011;61972;19.480;-99.240;2022-11-24T00:41:25;18.35;;;12.27;;
73672;SDS011;61972;19.480;-99.240;2022-11-24T00:43:55;20.52;;;12.43;;
73672;SDS011;61972;19.480;-99.240;2022-11-24T00:46:22;19.63;;;12.07;;
73672;SDS011;61972;19.480;-99.240;2022-11-24T00:48:49;19.23;;;12.35;;
73672;SDS011;61972;19.480;-99.240;2022-11-24T00:51:18;18.40;;;12.00;;
73672;SDS011;61972;19.480;-99.240;2022-11-24T00:53:46;19.15;;;12.52;;
73672;SDS011;61972;19.480;-99.240;2022-11-24T00:56:18;19.27;;;12.25;;
73672;SDS011;61972;19.480;-99.240;2022-11-24T00:58:44;22.75;;;12.48;;
73672;SDS011;61972;19.480;-99.240;2022-11-24T01:01:17;19.15;;;12.55;;
73672;SDS011;61972;19.480;-99.240;2022-11-24T01:03:44;21.47;;;12.73;;
73672;SDS011;61972;19.480;-99.240;2022-11-24T01:06:31;21.23;;;13.00;;
73672;SDS011;61972;19.480;-99.240;2022-11-24T01:08:59;19.63;;;13.00;;
73672;SDS011;61972;19.480;-99.240;2022-11-24T01:13:55;24.55;;;14.40;;
73672;SDS011;61972;19.480;-99.240;2022-11-24T01:16:26;22.23;;;13.30;;
73672;SDS011;61972;19.480;-99.240;2022-11-24T01:18:54;22.83;;;13.00;;
73672;SDS011;61972;19.480;-99.240;2022-11-24T01:21:21;22.83;;;13.60;;
73672;SDS011;61972;19.480;-99.240;2022-11-24T01:23:50;20.35;;;13.23;;
73672;SDS011;61972;19.480;-99.240;2022-11-24T01:26:20;20.38;;;13.68;;
73672;SDS011;61972;19.480;-99.240;2022-11-24T01:28:50;20.37;;;13.23;;
73672;SDS011;61972;19.480;-99.240;2022-11-24T01:31:23;24.23;;;14.05;;
73672;SDS011;61972;19.480;-99.240;2022-11-24T01:33:53;22.02;;;13.65;;
73672;SDS011;61972;19.480;-99.240;2022-11-24T01:36:23;23.80;;;13.88;;
73672;SDS011;61972;19.480;-99.240;2022-11-24T01:38:49;24.45;;;13.93;;
73672;SDS011;61972;19.480;-99.240;2022-11-24T01:41:17;25.83;;;15.17;;
73672;SDS011;61972;19.480;-99.240;2022-11-24T01:43:45;23.83;;;15.05;;
73672;SDS011;61972;19.480;-99.240;2022-11-24T01:51:32;29.40;;;15.32;;
73672;SDS011;61972;19.480;-99.240;2022-11-24T01:54:03;23.30;;;14.83;;
73672;SDS011;61972;19.480;-99.240;2022-11-24T01:56:31;24.42;;;14.23;;
73672;SDS011;61972;19.480;-99.240;2022-11-24T01:58:59;25.80;;;15.35;;
73672;SDS011;61972;19.480;-99.240;2022-11-24T02:01:31;22.63;;;14.75;;
73672;SDS011;61972;19.480;-99.240;2022-11-24T02:04:00;27.00;;;15.60;;
73672;SDS011;61972;19.480;-99.240;2022-11-24T02:06:33;24.13;;;14.73;;
73672;SDS011;61972;19.480;-99.240;2022-11-24T02:09:05;25.60;;;14.55;;
73672;SDS011;61972;19.480;-99.240;2022-11-24T02:11:38;23.65;;;15.40;;
73672;SDS011;61972;19.480;-99.240;2022-11-24T02:14:05;23.38;;;15.05;;
73672;SDS011;61972;19.480;-99.240;2022-11-24T02:16:34;21.85;;;14.10;;
73672;SDS011;61972;19.480;-99.240;2022-11-24T02:19:05;28.30;;;15.57;;
73672;SDS011;61972;19.480;-99.240;2022-11-24T02:21:39;29.92;;;14.15;;
73672;SDS011;61972;19.480;-99.240;2022-11-24T02:27:20;24.98;;;14.80;;
73672;SDS011;61972;19.480;-99.240;2022-11-24T02:29:46;25.50;;;14.73;;
73672;SDS011;61972;19.480;-99.240;2022-11-24T02:32:13;21.20;;;13.63;;
73672;SDS011;61972;19.480;-99.240;2022-11-24T02:34:40;22.92;;;14.10;;
73672;SDS011;61972;19.480;-99.240;2022-11-24T02:37:07;23.15;;;14.88;;
73672;SDS011;61972;19.480;-99.240;2022-11-24T02:39:35;24.52;;;15.13;;
73672;SDS011;61972;19.480;-99.240;2022-11-24T02:42:05;22.23;;;14.45;;
73672;SDS011;61972;19.480;-99.240;2022-11-24T02:44:36;25.70;;;15.07;;
73672;SDS011;61972;19.480;-99.240;2022-11-24T02:47:08;23.83;;;14.50;;
73672;SDS011;61972;19.480;-99.240;2022-11-24T02:49:38;24.00;;;14.52;;
73672;SDS011;61972;19.480;-99.240;2022-11-24T02:52:05;22.08;;;14.15;;
73672;SDS011;61972;19.480;-99.240;2022-11-24T02:54:31;22.30;;;14.68;;
73672;SDS011;61972;19.480;-99.240;2022-11-24T02:56:57;22.93;;;14.30;;
73672;SDS011;61972;19.480;-99.240;2022-11-24T02:59:24;20.67;;;14.10;;
73672;SDS011;61972;19.480;-99.240;2022-11-24T03:01:50;23.45;;;14.95;;
73672;SDS011;61972;19.480;-99.240;2022-11-24T03:04:16;21.17;;;14.10;;
73672;SDS011;61972;19.480;-99.240;2022-11-24T03:06:42;20.55;;;14.05;;
73672;SDS011;61972;19.480;-99.240;2022-11-24T03:09:08;21.67;;;14.00;;
73672;SDS011;61972;19.480;-99.240;2022-11-24T03:11:38;25.55;;;14.45;;
73672;SDS011;61972;19.480;-99.240;2022-11-24T03:14:13;24.48;;;14.07;;
73672;SDS011;61972;19.480;-99.240;2022-11-24T03:16:39;19.50;;;13.15;;
73672;SDS011;61972;19.480;-99.240;2022-11-24T03:19:08;22.58;;;13.65;;
73672;SDS011;61972;19.480;-99.240;2022-11-24T03:21:35;22.57;;;13.07;;
73672;SDS011;61972;19.480;-99.240;2022-11-24T03:24:01;20.33;;;13.27;;
73672;SDS011;61972;19.480;-99.240;2022-11-24T03:26:32;21.63;;;12.98;;
73672;SDS011;61972;19.480;-99.240;2022-11-24T03:29:01;20.27;;;12.60;;
73672;SDS011;61972;19.480;-99.240;2022-11-24T03:31:27;21.15;;;12.32;;
73672;SDS011;61972;19.480;-99.240;2022-11-24T03:33:53;19.67;;;12.27;;
73672;SDS011;61972;19.480;-99.240;2022-11-24T03:36:19;19.05;;;12.55;;
73672;SDS011;61972;19.480;-99.240;2022-11-24T03:38:45;21.35;;;13.00;;
73672;SDS011;61972;19.480;-99.240;2022-11-24T03:41:11;20.30;;;12.75;;
73672;SDS011;61972;19.480;-99.240;2022-11-24T03:43:38;18.73;;;12.77;;
73672;SDS011;61972;19.480;-99.240;2022-11-24T03:46:04;19.77;;;12.43;;
73672;SDS011;61972;19.480;-99.240;2022-11-24T03:48:30;19.67;;;12.40;;
73672;SDS011;61972;19.480;-99.240;2022-11-24T03:51:02;19.88;;;12.30;;
73672;SDS011;61972;19.480;-99.240;2022-11-24T03:53:31;19.38;;;12.57;;
73672;SDS011;61972;19.480;-99.240;2022-11-24T03:55:58;19.50;;;12.00;;
73672;SDS011;61972;19.480;-99.240;2022-11-24T03:58:25;18.63;;;12.47;;
73672;SDS011;61972;19.480;-99.240;2022-11-24T04:00:54;17.13;;;11.52;;
73672;SDS011;61972;19.480;-99.240;2022-11-24T04:03:32;18.52;;;12.05;;
73672;SDS011;61972;19.480;-99.240;2022-11-24T04:06:01;18.48;;;11.27;;
73672;SDS011;61972;19.480;-99.240;2022-11-24T04:08:33;17.95;;;11.50;;
73672;SDS011;61972;19.480;-99.240;2022-11-24T04:10:59;17.03;;;11.57;;
73672;SDS011;61972;19.480;-99.240;2022-11-24T04:13:25;15.98;;;10.90;;
73672;SDS011;61972;19.480;-99.240;2022-11-24T04:15:52;18.02;;;11.77;;
73672;SDS011;61972;19.480;-99.240;2022-11-24T04:18:19;16.70;;;10.82;;
73672;SDS011;61972;19.480;-99.240;2022-11-24T04:20:47;16.80;;;11.77;;
73672;SDS011;61972;19.480;-99.240;2022-11-24T04:23:15;18.43;;;10.73;;
73672;SDS011;61972;19.480;-99.240;2022-11-24T04:25:41;14.88;;;10.18;;
73672;SDS011;61972;19.480;-99.240;2022-11-24T04:28:08;17.13;;;10.80;;
73672;SDS011;61972;19.480;-99.240;2022-11-24T04:30:34;15.77;;;10.48;;
73672;SDS011;61972;19.480;-99.240;2022-11-24T04:33:02;16.23;;;10.38;;
73672;SDS011;61972;19.480;-99.240;2022-11-24T04:35:29;16.67;;;11.00;;
73672;SDS011;61972;19.480;-99.240;2022-11-24T04:37:55;16.10;;;10.77;;
73672;SDS011;61972;19.480;-99.240;2022-11-24T04:40:21;18.15;;;10.88;;
73672;SDS011;61972;19.480;-99.240;2022-11-24T04:42:53;17.88;;;10.85;;
73672;SDS011;61972;19.480;-99.240;2022-11-24T04:45:20;16.90;;;10.68;;
73672;SDS011;61972;19.480;-99.240;2022-11-24T04:47:46;15.90;;;10.00;;
73672;SDS011;61972;19.480;-99.240;2022-11-24T04:50:12;18.00;;;10.13;;
73672;SDS011;61972;19.480;-99.240;2022-11-24T04:52:38;16.13;;;10.43;;
73672;SDS011;61972;19.480;-99.240;2022-11-24T04:55:05;14.32;;;9.65;;
73672;SDS011;61972;19.480;-99.240;2022-11-24T04:57:31;15.70;;;10.30;;
73672;SDS011;61972;19.480;-99.240;2022-11-24T04:59:57;16.73;;;9.80;;
73672;SDS011;61972;19.480;-99.240;2022-11-24T05:02:23;15.40;;;10.32;;
73672;SDS011;61972;19.480;-99.240;2022-11-24T05:04:49;14.93;;;9.88;;
73672;SDS011;61972;19.480;-99.240;2022-11-24T05:07:16;15.25;;;10.23;;
73672;SDS011;61972;19.480;-99.240;2022-11-24T05:09:42;14.45;;;9.77;;
73672;SDS011;61972;19.480;-99.240;2022-11-24T05:12:27;16.13;;;9.73;;
73672;SDS011;61972;19.480;-99.240;2022-11-24T05:14:58;15.98;;;9.70;;
73672;SDS011;61972;19.480;-99.240;2022-11-24T05:17:29;14.70;;;9.75;;
73672;SDS011;61972;19.480;-99.240;2022-11-24T05:19:57;15.88;;;9.88;;
73672;SDS011;61972;19.480;-99.240;2022-11-24T05:22:24;14.02;;;9.77;;
73672;SDS011;61972;19.480;-99.240;2022-11-24T05:24:51;13.83;;;9.17;;
73672;SDS011;61972;19.480;-99.240;2022-11-24T05:27:17;13.20;;;9.00;;
73672;SDS011;61972;19.480;-99.240;2022-11-24T05:29:43;15.13;;;9.75;;
73672;SDS011;61972;19.480;-99.240;2022-11-24T05:32:09;14.98;;;9.63;;
73672;SDS011;61972;19.480;-99.240;2022-11-24T05:34:35;18.52;;;9.32;;
73672;SDS011;61972;19.480;-99.240;2022-11-24T05:37:01;14.50;;;9.47;;
73672;SDS011;61972;19.480;-99.240;2022-11-24T05:39:30;13.15;;;9.00;;
73672;SDS011;61972;19.480;-99.240;2022-11-24T05:42:00;16.02;;;9.55;;
73672;SDS011;61972;19.480;-99.240;2022-11-24T05:44:48;14.55;;;9.07;;
73672;SDS011;61972;19.480;-99.240;2022-11-24T05:47:14;14.10;;;8.95;;
73672;SDS011;61972;19.480;-99.240;2022-11-24T05:49:40;14.43;;;9.23;;
73672;SDS011;61972;19.480;-99.240;2022-11-24T05:52:06;14.63;;;9.35;;
73672;SDS011;61972;19.480;-99.240;2022-11-24T05:54:33;14.68;;;9.70;;
73672;SDS011;61972;19.480;-99.240;2022-11-24T05:57:01;15.05;;;9.48;;
73672;SDS011;61972;19.480;-99.240;2022-11-24T05:59:35;13.88;;;9.07;;
73672;SDS011;61972;19.480;-99.240;2022-11-24T06:02:01;15.10;;;9.60;;
73672;SDS011;61972;19.480;-99.240;2022-11-24T06:04:27;16.30;;;9.80;;
73672;SDS011;61972;19.480;-99.240;2022-11-24T06:06:53;16.65;;;9.32;;
73672;SDS011;61972;19.480;-99.240;2022-11-24T06:09:19;14.93;;;9.40;;
73672;SDS011;61972;19.480;-99.240;2022-11-24T06:11:48;15.57;;;8.93;;
73672;SDS011;61972;19.480;-99.240;2022-11-24T06:14:14;13.17;;;9.33;;
73672;SDS011;61972;19.480;-99.240;2022-11-24T06:16:40;15.65;;;9.88;;
73672;SDS011;61972;19.480;-99.240;2022-11-24T06:19:08;14.63;;;9.65;;
73672;SDS011;61972;19.480;-99.240;2022-11-24T06:21:35;17.25;;;9.27;;
73672;SDS011;61972;19.480;-99.240;2022-11-24T06:24:01;14.52;;;9.25;;
73672;SDS011;61972;19.480;-99.240;2022-11-24T06:26:27;15.17;;;8.90;;
73672;SDS011;61972;19.480;-99.240;2022-11-24T06:28:53;16.13;;;8.75;;
73672;SDS011;61972;19.480;-99.240;2022-11-24T06:31:19;13.57;;;8.85;;
73672;SDS011;61972;19.480;-99.240;2022-11-24T06:33:45;13.73;;;8.77;;
73672;SDS011;61972;19.480;-99.240;2022-11-24T06:36:12;13.48;;;8.57;;
73672;SDS011;61972;19.480;-99.240;2022-11-24T06:38:39;14.13;;;9.30;;
73672;SDS011;61972;19.480;-99.240;2022-11-24T06:41:06;14.07;;;9.32;;
73672;SDS011;61972;19.480;-99.240;2022-11-24T06:43:35;13.00;;;8.52;;
73672;SDS011;61972;19.480;-99.240;2022-11-24T06:46:02;13.93;;;8.73;;
73672;SDS011;61972;19.480;-99.240;2022-11-24T06:48:28;14.73;;;8.68;;
73672;SDS011;61972;19.480;-99.240;2022-11-24T06:50:59;12.83;;;8.40;;
73672;SDS011;61972;19.480;-99.240;2022-11-24T06:53:55;12.85;;;8.50;;
73672;SDS011;61972;19.480;-99.240;2022-11-24T06:56:21;13.15;;;8.15;;
73672;SDS011;61972;19.480;-99.240;2022-11-24T06:58:50;14.93;;;8.57;;
73672;SDS011;61972;19.480;-99.240;2022-11-24T07:01:24;14.80;;;8.73;;
73672;SDS011;61972;19.480;-99.240;2022-11-24T07:03:52;15.13;;;8.90;;
73672;SDS011;61972;19.480;-99.240;2022-11-24T07:06:19;16.10;;;8.98;;
73672;SDS011;61972;19.480;-99.240;2022-11-24T07:08:47;13.18;;;8.52;;
73672;SDS011;61972;19.480;-99.240;2022-11-24T07:11:14;12.15;;;8.27;;
73672;SDS011;61972;19.480;-99.240;2022-11-24T07:13:43;12.43;;;8.23;;
73672;SDS011;61972;19.480;-99.240;2022-11-24T07:16:17;14.70;;;8.50;;
73672;SDS011;61972;19.480;-99.240;2022-11-24T07:18:44;12.82;;;8.18;;
73672;SDS011;61972;19.480;-99.240;2022-11-24T07:21:11;12.63;;;8.50;;
73672;SDS011;61972;19.480;-99.240;2022-11-24T07:23:37;12.88;;;8.57;;
73672;SDS011;61972;19.480;-99.240;2022-11-24T07:26:04;12.45;;;8.20;;
73672;SDS011;61972;19.480;-99.240;2022-11-24T07:28:32;12.60;;;8.57;;
73672;SDS011;61972;19.480;-99.240;2022-11-24T07:31:03;12.82;;;8.65;;
73672;SDS011;61972;19.480;-99.240;2022-11-24T07:33:33;12.60;;;9.07;;
73672;SDS011;61972;19.480;-99.240;2022-11-24T07:36:00;13.18;;;8.13;;
73672;SDS011;61972;19.480;-99.240;2022-11-24T07:38:27;13.18;;;8.80;;
73672;SDS011;61972;19.480;-99.240;2022-11-24T07:41:13;15.57;;;8.77;;
73672;SDS011;61972;19.480;-99.240;2022-11-24T07:43:41;12.05;;;8.57;;
73672;SDS011;61972;19.480;-99.240;2022-11-24T07:46:08;14.10;;;8.43;;
73672;SDS011;61972;19.480;-99.240;2022-11-24T07:48:36;12.98;;;8.15;;
73672;SDS011;61972;19.480;-99.240;2022-11-24T07:51:03;11.98;;;8.70;;
73672;SDS011;61972;19.480;-99.240;2022-11-24T07:53:30;11.47;;;7.87;;
73672;SDS011;61972;19.480;-99.240;2022-11-24T07:55:57;14.35;;;8.70;;
73672;SDS011;61972;19.480;-99.240;2022-11-24T07:58:25;13.30;;;8.63;;
73672;SDS011;61972;19.480;-99.240;2022-11-24T08:00:53;12.85;;;8.68;;
73672;SDS011;61972;19.480;-99.240;2022-11-24T08:03:19;11.65;;;8.82;;
73672;SDS011;61972;19.480;-99.240;2022-11-24T08:06:19;15.03;;;9.00;;
73672;SDS011;61972;19.480;-99.240;2022-11-24T08:08:38;12.95;;;8.50;;
73672;SDS011;61972;19.480;-99.240;2022-11-24T08:11:09;16.02;;;9.40;;
73672;SDS011;61972;19.480;-99.240;2022-11-24T08:13:36;13.93;;;8.70;;
73672;SDS011;61972;19.480;-99.240;2022-11-24T08:16:06;12.73;;;9.02;;
73672;SDS011;61972;19.480;-99.240;2022-11-24T08:18:35;11.97;;;8.77;;
73672;SDS011;61972;19.480;-99.240;2022-11-24T08:21:11;11.45;;;8.52;;
73672;SDS011;61972;19.480;-99.240;2022-11-24T08:23:38;12.57;;;8.57;;
73672;SDS011;61972;19.480;-99.240;2022-11-24T08:26:06;14.55;;;8.77;;
73672;SDS011;61972;19.480;-99.240;2022-11-24T08:28:40;13.25;;;9.10;;
73672;SDS011;61972;19.480;-99.240;2022-11-24T08:31:08;13.67;;;9.13;;
73672;SDS011;61972;19.480;-99.240;2022-11-24T08:33:37;13.25;;;9.40;;
73672;SDS011;61972;19.480;-99.240;2022-11-24T08:36:08;13.70;;;9.63;;
73672;SDS011;61972;19.480;-99.240;2022-11-24T08:38:38;14.90;;;9.18;;
73672;SDS011;61972;19.480;-99.240;2022-11-24T08:41:06;12.90;;;9.20;;
73672;SDS011;61972;19.480;-99.240;2022-11-24T08:43:39;15.70;;;9.43;;
73672;SDS011;61972;19.480;-99.240;2022-11-24T08:46:10;13.90;;;9.10;;
73672;SDS011;61972;19.480;-99.240;2022-11-24T08:48:38;15.65;;;9.90;;
73672;SDS011;61972;19.480;-99.240;2022-11-24T08:51:05;14.75;;;9.50;;
73672;SDS011;61972;19.480;-99.240;2022-11-24T08:53:36;14.68;;;10.52;;
73672;SDS011;61972;19.480;-99.240;2022-11-24T08:56:03;13.73;;;9.43;;
73672;SDS011;61972;19.480;-99.240;2022-11-24T08:58:30;16.08;;;10.20;;
73672;SDS011;61972;19.480;-99.240;2022-11-24T09:01:05;16.23;;;10.65;;
73672;SDS011;61972;19.480;-99.240;2022-11-24T09:03:35;15.25;;;10.38;;
73672;SDS011;61972;19.480;-99.240;2022-11-24T09:06:05;16.85;;;10.82;;
73672;SDS011;61972;19.480;-99.240;2022-11-24T09:08:33;17.40;;;10.77;;
73672;SDS011;61972;19.480;-99.240;2022-11-24T09:11:00;15.45;;;10.50;;
73672;SDS011;61972;19.480;-99.240;2022-11-24T09:13:28;14.05;;;9.90;;
73672;SDS011;61972;19.480;-99.240;2022-11-24T09:15:54;14.90;;;9.27;;
73672;SDS011;61972;19.480;-99.240;2022-11-24T09:18:23;16.38;;;10.40;;
73672;SDS011;61972;19.480;-99.240;2022-11-24T09:20:49;15.70;;;10.23;;
73672;SDS011;61972;19.480;-99.240;2022-11-24T09:23:15;18.52;;;10.23;;
73672;SDS011;61972;19.480;-99.240;2022-11-24T09:25:41;13.57;;;9.77;;
73672;SDS011;61972;19.480;-99.240;2022-11-24T09:28:07;15.15;;;9.30;;
73672;SDS011;61972;19.480;-99.240;2022-11-24T09:30:33;13.53;;;9.67;;
73672;SDS011;61972;19.480;-99.240;2022-11-24T09:32:59;13.82;;;9.05;;
73672;SDS011;61972;19.480;-99.240;2022-11-24T09:35:26;11.73;;;9.07;;
73672;SDS011;61972;19.480;-99.240;2022-11-24T09:37:52;14.38;;;9.60;;
73672;SDS011;61972;19.480;-99.240;2022-11-24T09:40:18;12.80;;;9.05;;
73672;SDS011;61972;19.480;-99.240;2022-11-24T09:42:51;12.53;;;9.10;;
73672;SDS011;61972;19.480;-99.240;2022-11-24T09:48:10;12.20;;;8.10;;
73672;SDS011;61972;19.480;-99.240;2022-11-24T09:50:47;10.98;;;8.27;;
73672;SDS011;61972;19.480;-99.240;2022-11-24T09:56:27;15.23;;;8.47;;
73672;SDS011;61972;19.480;-99.240;2022-11-24T09:58:58;16.45;;;8.40;;
73672;SDS011;61972;19.480;-99.240;2022-11-24T10:01:28;13.45;;;8.20;;
73672;SDS011;61972;19.480;-99.240;2022-11-24T10:03:56;12.45;;;8.27;;
73672;SDS011;61972;19.480;-99.240;2022-11-24T10:09:01;10.63;;;8.07;;
73672;SDS011;61972;19.480;-99.240;2022-11-24T10:22:34;12.57;;;8.27;;
73672;SDS011;61972;19.480;-99.240;2022-11-24T10:25:24;13.73;;;8.30;;
73672;SDS011;61972;19.480;-99.240;2022-11-24T10:28:03;19.40;;;8.95;;
73672;SDS011;61972;19.480;-99.240;2022-11-24T10:30:34;13.73;;;8.93;;
73672;SDS011;61972;19.480;-99.240;2022-11-24T10:33:00;14.52;;;8.77;;
73672;SDS011;61972;19.480;-99.240;2022-11-24T10:35:39;12.40;;;8.13;;
73672;SDS011;61972;19.480;-99.240;2022-11-24T10:38:36;13.57;;;8.43;;
73672;SDS011;61972;19.480;-99.240;2022-11-24T10:41:06;12.93;;;8.50;;
73672;SDS011;61972;19.480;-99.240;2022-11-24T10:43:38;13.43;;;8.65;;
73672;SDS011;61972;19.480;-99.240;2022-11-24T10:48:37;13.07;;;8.47;;
73672;SDS011;61972;19.480;-99.240;2022-11-24T10:53:54;12.80;;;9.32;;
73672;SDS011;61972;19.480;-99.240;2022-11-24T10:56:26;13.63;;;8.43;;
73672;SDS011;61972;19.480;-99.240;2022-11-24T10:59:18;11.07;;;8.38;;
73672;SDS011;61972;19.480;-99.240;2022-11-24T11:08:36;12.80;;;9.00;;
73672;SDS011;61972;19.480;-99.240;2022-11-24T11:10:45;11.43;;;8.57;;
73672;SDS011;61972;19.480;-99.240;2022-11-24T11:15:47;13.00;;;8.80;;
73672;SDS011;61972;19.480;-99.240;2022-11-24T11:18:15;12.20;;;9.32;;
73672;SDS011;61972;19.480;-99.240;2022-11-24T11:20:49;13.52;;;8.98;;
73672;SDS011;61972;19.480;-99.240;2022-11-24T11:23:20;14.70;;;9.15;;
73672;SDS011;61972;19.480;-99.240;2022-11-24T11:25:49;14.27;;;9.38;;
73672;SDS011;61972;19.480;-99.240;2022-11-24T11:30:53;12.48;;;8.75;;
73672;SDS011;61972;19.480;-99.240;2022-11-24T11:33:24;12.02;;;9.02;;
73672;SDS011;61972;19.480;-99.240;2022-11-24T11:35:55;14.63;;;8.93;;
73672;SDS011;61972;19.480;-99.240;2022-11-24T11:38:25;13.82;;;8.98;;
73672;SDS011;61972;19.480;-99.240;2022-11-24T11:40:58;13.03;;;8.73;;
73672;SDS011;61972;19.480;-99.240;2022-11-24T11:43:30;12.57;;;8.70;;
73672;SDS011;61972;19.480;-99.240;2022-11-24T11:48:36;13.77;;;9.02;;
73672;SDS011;61972;19.480;-99.240;2022-11-24T11:53:49;13.47;;;8.80;;
73672;SDS011;61972;19.480;-99.240;2022-11-24T11:56:36;12.27;;;8.80;;
73672;SDS011;61972;19.480;-99.240;2022-11-24T11:59:31;11.48;;;8.77;;
73672;SDS011;61972;19.480;-99.240;2022-11-24T12:14:10;11.85;;;8.52;;
73672;SDS011;61972;19.480;-99.240;2022-11-24T12:36:01;13.10;;;8.73;;
73672;SDS011;61972;19.480;-99.240;2022-11-24T12:41:35;11.13;;;8.02;;
73672;SDS011;61972;19.480;-99.240;2022-11-24T12:44:09;14.30;;;8.75;;
73672;SDS011;61972;19.480;-99.240;2022-11-24T12:47:01;13.30;;;8.48;;
73672;SDS011;61972;19.480;-99.240;2022-11-24T12:52:43;12.20;;;8.73;;
73672;SDS011;61972;19.480;-99.240;2022-11-24T12:55:16;11.13;;;8.32;;
73672;SDS011;61972;19.480;-99.240;2022-11-24T12:57:54;12.90;;;8.60;;
73672;SDS011;61972;19.480;-99.240;2022-11-24T13:00:45;13.15;;;8.48;;
73672;SDS011;61972;19.480;-99.240;2022-11-24T13:06:22;12.10;;;8.10;;
73672;SDS011;61972;19.480;-99.240;2022-11-24T13:09:10;12.70;;;8.35;;
73672;SDS011;61972;19.480;-99.240;2022-11-24T13:11:40;13.98;;;7.85;;
73672;SDS011;61972;19.480;-99.240;2022-11-24T13:16:55;11.83;;;7.83;;
73672;SDS011;61972;19.480;-99.240;2022-11-24T13:19:33;10.68;;;7.85;;
73672;SDS011;61972;19.480;-99.240;2022-11-24T13:22:02;13.20;;;7.80;;
73672;SDS011;61972;19.480;-99.240;2022-11-24T13:24:32;12.48;;;8.38;;
73672;SDS011;61972;19.480;-99.240;2022-11-24T13:29:43;11.07;;;8.10;;
73672;SDS011;61972;19.480;-99.240;2022-11-24T13:40:36;13.65;;;7.78;;
73672;SDS011;61972;19.480;-99.240;2022-11-24T14:01:18;14.10;;;8.25;;
73672;SDS011;61972;19.480;-99.240;2022-11-24T14:03:58;12.15;;;7.93;;
73672;SDS011;61972;19.480;-99.240;2022-11-24T14:06:47;11.10;;;8.13;;
73672;SDS011;61972;19.480;-99.240;2022-11-24T14:12:05;12.90;;;7.93;;
73672;SDS011;61972;19.480;-99.240;2022-11-24T14:14:33;13.48;;;7.80;;
73672;SDS011;61972;19.480;-99.240;2022-11-24T14:17:31;12.68;;;8.40;;
73672;SDS011;61972;19.480;-99.240;2022-11-24T14:19:53;12.02;;;7.93;;
73672;SDS011;61972;19.480;-99.240;2022-11-24T14:22:38;13.47;;;7.97;;
73672;SDS011;61972;19.480;-99.240;2022-11-24T14:25:05;13.45;;;8.57;;
73672;SDS011;61972;19.480;-99.240;2022-11-24T14:27:45;12.75;;;8.05;;
73672;SDS011;61972;19.480;-99.240;2022-11-24T14:36:12;12.53;;;7.90;;
73672;SDS011;61972;19.480;-99.240;2022-11-24T14:39:30;14.52;;;8.60;;
73672;SDS011;61972;19.480;-99.240;2022-11-24T14:42:40;11.13;;;7.80;;
73672;SDS011;61972;19.480;-99.240;2022-11-24T14:45:14;12.68;;;8.40;;
73672;SDS011;61972;19.480;-99.240;2022-11-24T14:47:45;15.43;;;8.13;;
73672;SDS011;61972;19.480;-99.240;2022-11-24T14:50:14;12.13;;;8.00;;
73672;SDS011;61972;19.480;-99.240;2022-11-24T14:52:53;11.90;;;8.50;;
73672;SDS011;61972;19.480;-99.240;2022-11-24T14:55:30;13.50;;;8.20;;
73672;SDS011;61972;19.480;-99.240;2022-11-24T14:57:57;13.55;;;8.55;;
73672;SDS011;61972;19.480;-99.240;2022-11-24T15:00:25;16.30;;;8.73;;
73672;SDS011;61972;19.480;-99.240;2022-11-24T15:08:16;13.65;;;8.88;;
73672;SDS011;61972;19.480;-99.240;2022-11-24T15:10:42;18.45;;;8.57;;
73672;SDS011;61972;19.480;-99.240;2022-11-24T15:13:16;15.55;;;8.18;;
73672;SDS011;61972;19.480;-99.240;2022-11-24T15:15:50;13.37;;;8.30;;
73672;SDS011;61972;19.480;-99.240;2022-11-24T15:24:15;12.27;;;8.40;;
73672;SDS011;61972;19.480;-99.240;2022-11-24T15:26:43;14.63;;;8.00;;
73672;SDS011;61972;19.480;-99.240;2022-11-24T15:29:10;13.17;;;8.00;;
73672;SDS011;61972;19.480;-99.240;2022-11-24T15:31:37;14.43;;;8.35;;
73672;SDS011;61972;19.480;-99.240;2022-11-24T15:34:05;13.02;;;8.25;;
73672;SDS011;61972;19.480;-99.240;2022-11-24T15:36:32;12.27;;;8.02;;
73672;SDS011;61972;19.480;-99.240;2022-11-24T15:38:58;12.30;;;8.23;;
73672;SDS011;61972;19.480;-99.240;2022-11-24T15:41:26;12.80;;;8.03;;
73672;SDS011;61972;19.480;-99.240;2022-11-24T15:43:54;11.65;;;8.18;;
73672;SDS011;61972;19.480;-99.240;2022-11-24T15:46:26;12.57;;;8.80;;
73672;SDS011;61972;19.480;-99.240;2022-11-24T15:48:53;13.35;;;8.50;;
73672;SDS011;61972;19.480;-99.240;2022-11-24T15:51:19;12.93;;;8.70;;
73672;SDS011;61972;19.480;-99.240;2022-11-24T15:53:51;12.37;;;8.90;;
73672;SDS011;61972;19.480;-99.240;2022-11-24T15:58:55;12.98;;;8.90;;
73672;SDS011;61972;19.480;-99.240;2022-11-24T16:01:21;11.73;;;7.85;;
73672;SDS011;61972;19.480;-99.240;2022-11-24T16:03:48;12.13;;;8.50;;
73672;SDS011;61972;19.480;-99.240;2022-11-24T16:06:15;13.00;;;8.73;;
73672;SDS011;61972;19.480;-99.240;2022-11-24T16:08:43;12.55;;;8.50;;
73672;SDS011;61972;19.480;-99.240;2022-11-24T16:11:09;13.30;;;8.93;;
73672;SDS011;61972;19.480;-99.240;2022-11-24T16:13:35;13.77;;;9.13;;
73672;SDS011;61972;19.480;-99.240;2022-11-24T16:16:01;12.40;;;8.57;;
73672;SDS011;61972;19.480;-99.240;2022-11-24T16:18:28;11.73;;;8.97;;
73672;SDS011;61972;19.480;-99.240;2022-11-24T16:20:56;14.02;;;8.60;;
73672;SDS011;61972;19.480;-99.240;2022-11-24T16:23:22;13.77;;;8.85;;
73672;SDS011;61972;19.480;-99.240;2022-11-24T16:25:51;13.45;;;8.55;;
73672;SDS011;61972;19.480;-99.240;2022-11-24T16:28:17;12.75;;;8.82;;
73672;SDS011;61972;19.480;-99.240;2022-11-24T16:30:50;14.23;;;9.00;;
73672;SDS011;61972;19.480;-99.240;2022-11-24T16:33:16;11.63;;;8.77;;
73672;SDS011;61972;19.480;-99.240;2022-11-24T16:35:45;12.73;;;8.98;;
73672;SDS011;61972;19.480;-99.240;2022-11-24T16:38:15;11.77;;;8.40;;
73672;SDS011;61972;19.480;-99.240;2022-11-24T16:40:51;11.23;;;8.57;;
73672;SDS011;61972;19.480;-99.240;2022-11-24T16:43:18;12.33;;;8.60;;
73672;SDS011;61972;19.480;-99.240;2022-11-24T16:45:45;13.82;;;8.48;;
73672;SDS011;61972;19.480;-99.240;2022-11-24T16:48:11;13.27;;;8.30;;